sensor_id;sensor_type;location;lat;lon;timestamp;temperature;humidity
30459;DHT22;17254;50.976;7.034;2022-09-30T00:00:21;5.20;99.90
30459;DHT22;17254;50.976;7.034;2022-09-30T00:00:52;5.20;99.90
30459;DHT22;17254;50.976;7.034;2022-09-30T00:01:26;5.20;99.90
30459;DHT22;17254;50.976;7.034;2022-09-30T00:01:57;5.00;99.90
30459;DHT22;17254;50.976;7.034;2022-09-30T00:02:29;5.10;99.90
30459;DHT22;17254;50.976;7.034;2022-09-30T00:03:00;5.00;99.90
30459;DHT22;17254;50.976;7.034;2022-09-30T00:03:31;5.10;99.90
30459;DHT22;17254;50.976;7.034;2022-09-30T00:04:03;4.90;99.90
30459;DHT22;17254;50.976;7.034;2022-09-30T00:04:34;5.00;99.90
30459;DHT22;17254;50.976;7.034;2022-09-30T00:05:06;4.90;99.90
30459;DHT22;17254;50.976;7.034;2022-09-30T00:05:37;4.90;99.90
30459;DHT22;17254;50.976;7.034;2022-09-30T00:06:10;4.90;99.90
30459;DHT22;17254;50.976;7.034;2022-09-30T00:06:41;4.70;99.90
30459;DHT22;17254;50.976;7.034;2022-09-30T00:07:11;4.80;99.90
30459;DHT22;17254;50.976;7.034;2022-09-30T00:07:43;4.90;99.90
30459;DHT22;17254;50.976;7.034;2022-09-30T00:08:14;4.70;99.90
30459;DHT22;17254;50.976;7.034;2022-09-30T00:08:46;5.00;99.90
30459;DHT22;17254;50.976;7.034;2022-09-30T00:09:18;5.00;99.90
30459;DHT22;17254;50.976;7.034;2022-09-30T00:09:50;5.20;99.90
30459;DHT22;17254;50.976;7.034;2022-09-30T00:10:22;5.30;99.90
30459;DHT22;17254;50.976;7.034;2022-09-30T00:11:01;5.00;99.90
30459;DHT22;17254;50.976;7.034;2022-09-30T00:11:34;5.00;99.90
30459;DHT22;17254;50.976;7.034;2022-09-30T00:12:05;5.00;99.90
30459;DHT22;17254;50.976;7.034;2022-09-30T00:12:37;4.80;99.90
30459;DHT22;17254;50.976;7.034;2022-09-30T00:13:08;5.00;99.90
30459;DHT22;17254;50.976;7.034;2022-09-30T00:13:39;5.00;99.90
30459;DHT22;17254;50.976;7.034;2022-09-30T00:14:14;4.80;99.90
30459;DHT22;17254;50.976;7.034;2022-09-30T00:14:46;4.90;99.90
30459;DHT22;17254;50.976;7.034;2022-09-30T00:15:18;4.80;99.90
30459;DHT22;17254;50.976;7.034;2022-09-30T00:15:49;4.70;99.90
30459;DHT22;17254;50.976;7.034;2022-09-30T00:16:22;4.90;99.90
30459;DHT22;17254;50.976;7.034;2022-09-30T00:16:54;5.00;99.90
30459;DHT22;17254;50.976;7.034;2022-09-30T00:17:25;4.80;99.90
30459;DHT22;17254;50.976;7.034;2022-09-30T00:17:57;4.80;99.90
30459;DHT22;17254;50.976;7.034;2022-09-30T00:18:30;4.80;99.90
30459;DHT22;17254;50.976;7.034;2022-09-30T00:19:01;4.80;99.90
30459;DHT22;17254;50.976;7.034;2022-09-30T00:19:35;4.70;99.90
30459;DHT22;17254;50.976;7.034;2022-09-30T00:20:06;4.80;99.90
30459;DHT22;17254;50.976;7.034;2022-09-30T00:20:37;4.80;99.90
30459;DHT22;17254;50.976;7.034;2022-09-30T00:21:10;4.70;99.90
30459;DHT22;17254;50.976;7.034;2022-09-30T00:21:42;4.70;99.90
30459;DHT22;17254;50.976;7.034;2022-09-30T00:22:13;4.60;99.90
30459;DHT22;17254;50.976;7.034;2022-09-30T00:22:45;4.80;99.90
30459;DHT22;17254;50.976;7.034;2022-09-30T00:23:15;5.00;99.90
30459;DHT22;17254;50.976;7.034;2022-09-30T00:23:46;5.10;99.90
30459;DHT22;17254;50.976;7.034;2022-09-30T00:24:17;5.20;99.90
30459;DHT22;17254;50.976;7.034;2022-09-30T00:24:49;5.00;99.90
30459;DHT22;17254;50.976;7.034;2022-09-30T00:25:21;4.80;99.90
30459;DHT22;17254;50.976;7.034;2022-09-30T00:25:56;4.90;99.90
30459;DHT22;17254;50.976;7.034;2022-09-30T00:26:29;4.80;99.90
30459;DHT22;17254;50.976;7.034;2022-09-30T00:27:00;4.80;99.90
30459;DHT22;17254;50.976;7.034;2022-09-30T00:27:31;4.70;99.90
30459;DHT22;17254;50.976;7.034;2022-09-30T00:28:03;4.70;99.90
30459;DHT22;17254;50.976;7.034;2022-09-30T00:28:38;4.80;99.90
30459;DHT22;17254;50.976;7.034;2022-09-30T00:29:09;4.90;99.90
30459;DHT22;17254;50.976;7.034;2022-09-30T00:29:41;5.00;99.90
30459;DHT22;17254;50.976;7.034;2022-09-30T00:30:12;5.00;99.90
30459;DHT22;17254;50.976;7.034;2022-09-30T00:30:43;5.10;99.90
30459;DHT22;17254;50.976;7.034;2022-09-30T00:31:15;4.90;99.90
30459;DHT22;17254;50.976;7.034;2022-09-30T00:31:48;5.20;99.90
30459;DHT22;17254;50.976;7.034;2022-09-30T00:32:19;5.00;99.90
30459;DHT22;17254;50.976;7.034;2022-09-30T00:32:50;4.90;99.90
30459;DHT22;17254;50.976;7.034;2022-09-30T00:33:22;5.00;99.90
30459;DHT22;17254;50.976;7.034;2022-09-30T00:33:53;4.80;99.90
30459;DHT22;17254;50.976;7.034;2022-09-30T00:34:36;4.80;99.90
30459;DHT22;17254;50.976;7.034;2022-09-30T00:35:08;5.10;99.90
30459;DHT22;17254;50.976;7.034;2022-09-30T00:35:39;4.90;99.90
30459;DHT22;17254;50.976;7.034;2022-09-30T00:36:10;4.80;99.90
30459;DHT22;17254;50.976;7.034;2022-09-30T00:36:43;4.80;99.90
30459;DHT22;17254;50.976;7.034;2022-09-30T00:37:14;4.60;99.90
30459;DHT22;17254;50.976;7.034;2022-09-30T00:37:46;4.70;99.90
30459;DHT22;17254;50.976;7.034;2022-09-30T00:38:18;4.50;99.90
30459;DHT22;17254;50.976;7.034;2022-09-30T00:38:49;4.60;99.90
30459;DHT22;17254;50.976;7.034;2022-09-30T00:39:22;4.40;99.90
30459;DHT22;17254;50.976;7.034;2022-09-30T00:39:54;4.40;99.90
30459;DHT22;17254;50.976;7.034;2022-09-30T00:40:26;4.30;99.90
30459;DHT22;17254;50.976;7.034;2022-09-30T00:40:57;4.40;99.90
30459;DHT22;17254;50.976;7.034;2022-09-30T00:41:30;4.20;99.90
30459;DHT22;17254;50.976;7.034;2022-09-30T00:42:03;4.30;99.90
30459;DHT22;17254;50.976;7.034;2022-09-30T00:42:39;4.20;99.90
30459;DHT22;17254;50.976;7.034;2022-09-30T00:43:13;4.30;99.90
30459;DHT22;17254;50.976;7.034;2022-09-30T00:43:46;4.10;99.90
30459;DHT22;17254;50.976;7.034;2022-09-30T00:44:48;4.10;99.90
30459;DHT22;17254;50.976;7.034;2022-09-30T00:45:21;4.30;99.90
30459;DHT22;17254;50.976;7.034;2022-09-30T00:45:54;4.70;99.90
30459;DHT22;17254;50.976;7.034;2022-09-30T00:46:31;4.80;99.90
30459;DHT22;17254;50.976;7.034;2022-09-30T00:47:19;4.80;99.90
30459;DHT22;17254;50.976;7.034;2022-09-30T00:47:55;4.40;99.90
30459;DHT22;17254;50.976;7.034;2022-09-30T00:48:30;4.60;99.90
30459;DHT22;17254;50.976;7.034;2022-09-30T00:49:15;4.60;99.90
30459;DHT22;17254;50.976;7.034;2022-09-30T00:49:47;4.30;99.90
30459;DHT22;17254;50.976;7.034;2022-09-30T00:50:31;4.30;99.90
30459;DHT22;17254;50.976;7.034;2022-09-30T00:51:04;4.50;99.90
30459;DHT22;17254;50.976;7.034;2022-09-30T00:51:38;4.70;99.90
30459;DHT22;17254;50.976;7.034;2022-09-30T00:52:11;4.50;99.90
30459;DHT22;17254;50.976;7.034;2022-09-30T00:52:44;4.60;99.90
30459;DHT22;17254;50.976;7.034;2022-09-30T00:53:19;4.70;99.90
30459;DHT22;17254;50.976;7.034;2022-09-30T00:53:55;4.60;99.90
30459;DHT22;17254;50.976;7.034;2022-09-30T00:54:29;4.60;99.90
30459;DHT22;17254;50.976;7.034;2022-09-30T00:55:04;4.70;99.90
30459;DHT22;17254;50.976;7.034;2022-09-30T00:55:47;4.70;99.90
30459;DHT22;17254;50.976;7.034;2022-09-30T00:56:23;4.80;99.90
30459;DHT22;17254;50.976;7.034;2022-09-30T00:56:58;4.50;99.90
30459;DHT22;17254;50.976;7.034;2022-09-30T00:57:31;4.60;99.90
30459;DHT22;17254;50.976;7.034;2022-09-30T00:58:05;4.70;99.90
30459;DHT22;17254;50.976;7.034;2022-09-30T00:58:41;4.60;99.90
30459;DHT22;17254;50.976;7.034;2022-09-30T00:59:18;4.60;99.90
30459;DHT22;17254;50.976;7.034;2022-09-30T00:59:51;4.70;99.90
30459;DHT22;17254;50.976;7.034;2022-09-30T01:00:23;4.70;99.90
30459;DHT22;17254;50.976;7.034;2022-09-30T01:00:54;4.60;99.90
30459;DHT22;17254;50.976;7.034;2022-09-30T01:01:26;4.60;99.90
30459;DHT22;17254;50.976;7.034;2022-09-30T01:01:59;4.60;99.90
30459;DHT22;17254;50.976;7.034;2022-09-30T01:02:30;4.90;99.90
30459;DHT22;17254;50.976;7.034;2022-09-30T01:03:02;4.90;99.90
30459;DHT22;17254;50.976;7.034;2022-09-30T01:03:37;4.60;99.90
30459;DHT22;17254;50.976;7.034;2022-09-30T01:04:11;4.80;99.90
30459;DHT22;17254;50.976;7.034;2022-09-30T01:04:45;4.70;99.90
30459;DHT22;17254;50.976;7.034;2022-09-30T01:05:17;4.60;99.90
30459;DHT22;17254;50.976;7.034;2022-09-30T01:05:48;4.40;99.90
30459;DHT22;17254;50.976;7.034;2022-09-30T01:06:21;4.50;99.90
30459;DHT22;17254;50.976;7.034;2022-09-30T01:06:53;4.40;99.90
30459;DHT22;17254;50.976;7.034;2022-09-30T01:07:24;4.40;99.90
30459;DHT22;17254;50.976;7.034;2022-09-30T01:07:57;4.30;99.90
30459;DHT22;17254;50.976;7.034;2022-09-30T01:08:30;4.50;99.90
30459;DHT22;17254;50.976;7.034;2022-09-30T01:09:03;4.30;99.90
30459;DHT22;17254;50.976;7.034;2022-09-30T01:09:35;4.20;99.90
30459;DHT22;17254;50.976;7.034;2022-09-30T01:10:08;4.20;99.90
30459;DHT22;17254;50.976;7.034;2022-09-30T01:10:40;4.10;99.90
30459;DHT22;17254;50.976;7.034;2022-09-30T01:11:13;4.00;99.90
30459;DHT22;17254;50.976;7.034;2022-09-30T01:11:45;4.00;99.90
30459;DHT22;17254;50.976;7.034;2022-09-30T01:12:20;4.00;99.90
30459;DHT22;17254;50.976;7.034;2022-09-30T01:12:53;4.00;99.90
30459;DHT22;17254;50.976;7.034;2022-09-30T01:13:24;3.90;99.90
30459;DHT22;17254;50.976;7.034;2022-09-30T01:14:00;3.90;99.90
30459;DHT22;17254;50.976;7.034;2022-09-30T01:14:32;4.00;99.90
30459;DHT22;17254;50.976;7.034;2022-09-30T01:15:05;3.90;99.90
30459;DHT22;17254;50.976;7.034;2022-09-30T01:15:58;4.00;99.90
30459;DHT22;17254;50.976;7.034;2022-09-30T01:16:47;4.10;99.90
30459;DHT22;17254;50.976;7.034;2022-09-30T01:17:27;4.20;99.90
30459;DHT22;17254;50.976;7.034;2022-09-30T01:18:06;4.30;99.90
30459;DHT22;17254;50.976;7.034;2022-09-30T01:18:49;4.10;99.90
30459;DHT22;17254;50.976;7.034;2022-09-30T01:19:37;4.30;99.90
30459;DHT22;17254;50.976;7.034;2022-09-30T01:20:40;4.30;99.90
30459;DHT22;17254;50.976;7.034;2022-09-30T01:21:40;4.40;99.90
30459;DHT22;17254;50.976;7.034;2022-09-30T01:22:20;4.60;99.90
30459;DHT22;17254;50.976;7.034;2022-09-30T01:24:11;4.60;99.90
30459;DHT22;17254;50.976;7.034;2022-09-30T01:25:16;4.40;99.90
30459;DHT22;17254;50.976;7.034;2022-09-30T01:26:23;4.40;99.90
30459;DHT22;17254;50.976;7.034;2022-09-30T01:27:09;4.30;99.90
30459;DHT22;17254;50.976;7.034;2022-09-30T01:28:18;4.60;99.90
30459;DHT22;17254;50.976;7.034;2022-09-30T01:29:07;4.50;99.90
30459;DHT22;17254;50.976;7.034;2022-09-30T01:30:12;4.50;99.90
30459;DHT22;17254;50.976;7.034;2022-09-30T01:31:05;4.40;99.90
30459;DHT22;17254;50.976;7.034;2022-09-30T01:31:47;4.20;99.90
30459;DHT22;17254;50.976;7.034;2022-09-30T01:32:27;4.20;99.90
30459;DHT22;17254;50.976;7.034;2022-09-30T01:33:20;4.20;99.90
30459;DHT22;17254;50.976;7.034;2022-09-30T01:34:00;4.50;99.90
30459;DHT22;17254;50.976;7.034;2022-09-30T01:34:40;4.60;99.90
30459;DHT22;17254;50.976;7.034;2022-09-30T01:35:24;4.70;99.90
30459;DHT22;17254;50.976;7.034;2022-09-30T01:36:17;4.60;99.90
30459;DHT22;17254;50.976;7.034;2022-09-30T01:36:59;4.60;99.90
30459;DHT22;17254;50.976;7.034;2022-09-30T01:37:36;4.70;99.90
30459;DHT22;17254;50.976;7.034;2022-09-30T01:38:13;4.40;99.90
30459;DHT22;17254;50.976;7.034;2022-09-30T01:38:53;4.50;99.90
30459;DHT22;17254;50.976;7.034;2022-09-30T01:39:31;4.30;99.90
30459;DHT22;17254;50.976;7.034;2022-09-30T01:40:07;4.20;99.90
30459;DHT22;17254;50.976;7.034;2022-09-30T01:40:46;4.50;99.90
30459;DHT22;17254;50.976;7.034;2022-09-30T01:41:24;4.60;99.90
30459;DHT22;17254;50.976;7.034;2022-09-30T01:42:03;4.20;99.90
30459;DHT22;17254;50.976;7.034;2022-09-30T01:42:47;4.20;99.90
30459;DHT22;17254;50.976;7.034;2022-09-30T01:43:26;4.00;99.90
30459;DHT22;17254;50.976;7.034;2022-09-30T01:44:07;4.20;99.90
30459;DHT22;17254;50.976;7.034;2022-09-30T01:44:49;4.30;99.90
30459;DHT22;17254;50.976;7.034;2022-09-30T01:45:31;4.30;99.90
30459;DHT22;17254;50.976;7.034;2022-09-30T01:46:15;4.50;99.90
30459;DHT22;17254;50.976;7.034;2022-09-30T01:46:53;4.70;99.90
30459;DHT22;17254;50.976;7.034;2022-09-30T01:47:26;4.50;99.90
30459;DHT22;17254;50.976;7.034;2022-09-30T01:48:02;4.80;99.90
30459;DHT22;17254;50.976;7.034;2022-09-30T01:48:41;4.50;99.90
30459;DHT22;17254;50.976;7.034;2022-09-30T01:49:18;4.40;99.90
30459;DHT22;17254;50.976;7.034;2022-09-30T01:50:00;4.60;99.90
30459;DHT22;17254;50.976;7.034;2022-09-30T01:50:40;4.50;99.90
30459;DHT22;17254;50.976;7.034;2022-09-30T01:51:18;4.70;99.90
30459;DHT22;17254;50.976;7.034;2022-09-30T01:51:54;4.50;99.90
30459;DHT22;17254;50.976;7.034;2022-09-30T01:52:34;4.60;99.90
30459;DHT22;17254;50.976;7.034;2022-09-30T01:53:14;4.70;99.90
30459;DHT22;17254;50.976;7.034;2022-09-30T01:53:50;4.40;99.90
30459;DHT22;17254;50.976;7.034;2022-09-30T01:54:29;4.40;99.90
30459;DHT22;17254;50.976;7.034;2022-09-30T01:55:06;4.60;99.90
30459;DHT22;17254;50.976;7.034;2022-09-30T01:55:44;4.20;99.90
30459;DHT22;17254;50.976;7.034;2022-09-30T01:56:19;4.60;99.90
30459;DHT22;17254;50.976;7.034;2022-09-30T01:56:56;4.60;99.90
30459;DHT22;17254;50.976;7.034;2022-09-30T01:57:32;4.50;99.90
30459;DHT22;17254;50.976;7.034;2022-09-30T01:58:12;4.30;99.90
30459;DHT22;17254;50.976;7.034;2022-09-30T01:58:51;4.30;99.90
30459;DHT22;17254;50.976;7.034;2022-09-30T01:59:26;4.20;99.90
30459;DHT22;17254;50.976;7.034;2022-09-30T02:00:05;4.20;99.90
30459;DHT22;17254;50.976;7.034;2022-09-30T02:00:42;4.30;99.90
30459;DHT22;17254;50.976;7.034;2022-09-30T02:01:25;4.20;99.90
30459;DHT22;17254;50.976;7.034;2022-09-30T02:02:00;3.90;99.90
30459;DHT22;17254;50.976;7.034;2022-09-30T02:02:35;4.00;99.90
30459;DHT22;17254;50.976;7.034;2022-09-30T02:03:14;4.00;99.90
30459;DHT22;17254;50.976;7.034;2022-09-30T02:03:50;4.00;99.90
30459;DHT22;17254;50.976;7.034;2022-09-30T02:04:26;3.90;99.90
30459;DHT22;17254;50.976;7.034;2022-09-30T02:05:01;3.90;99.90
30459;DHT22;17254;50.976;7.034;2022-09-30T02:05:36;3.70;99.90
30459;DHT22;17254;50.976;7.034;2022-09-30T02:06:13;3.60;99.90
30459;DHT22;17254;50.976;7.034;2022-09-30T02:06:50;3.60;99.90
30459;DHT22;17254;50.976;7.034;2022-09-30T02:07:25;3.50;99.90
30459;DHT22;17254;50.976;7.034;2022-09-30T02:08:02;3.60;99.90
30459;DHT22;17254;50.976;7.034;2022-09-30T02:08:38;4.00;99.90
30459;DHT22;17254;50.976;7.034;2022-09-30T02:09:13;4.20;99.90
30459;DHT22;17254;50.976;7.034;2022-09-30T02:09:50;4.30;99.90
30459;DHT22;17254;50.976;7.034;2022-09-30T02:10:24;4.40;99.90
30459;DHT22;17254;50.976;7.034;2022-09-30T02:10:58;4.40;99.90
30459;DHT22;17254;50.976;7.034;2022-09-30T02:11:32;4.60;99.90
30459;DHT22;17254;50.976;7.034;2022-09-30T02:12:10;4.40;99.90
30459;DHT22;17254;50.976;7.034;2022-09-30T02:12:46;4.30;99.90
30459;DHT22;17254;50.976;7.034;2022-09-30T02:13:22;4.40;99.90
30459;DHT22;17254;50.976;7.034;2022-09-30T02:14:00;4.10;99.90
30459;DHT22;17254;50.976;7.034;2022-09-30T02:14:35;4.10;99.90
30459;DHT22;17254;50.976;7.034;2022-09-30T02:15:11;4.30;99.90
30459;DHT22;17254;50.976;7.034;2022-09-30T02:15:48;4.40;99.90
30459;DHT22;17254;50.976;7.034;2022-09-30T02:16:25;4.60;99.90
30459;DHT22;17254;50.976;7.034;2022-09-30T02:17:01;4.50;99.90
30459;DHT22;17254;50.976;7.034;2022-09-30T02:17:38;4.70;99.90
30459;DHT22;17254;50.976;7.034;2022-09-30T02:18:13;4.60;99.90
30459;DHT22;17254;50.976;7.034;2022-09-30T02:18:48;4.30;99.90
30459;DHT22;17254;50.976;7.034;2022-09-30T02:19:22;4.30;99.90
30459;DHT22;17254;50.976;7.034;2022-09-30T02:19:59;4.40;99.90
30459;DHT22;17254;50.976;7.034;2022-09-30T02:20:35;4.20;99.90
30459;DHT22;17254;50.976;7.034;2022-09-30T02:21:10;4.10;99.90
30459;DHT22;17254;50.976;7.034;2022-09-30T02:21:43;4.10;99.90
30459;DHT22;17254;50.976;7.034;2022-09-30T02:22:19;3.70;99.90
30459;DHT22;17254;50.976;7.034;2022-09-30T02:22:57;4.00;99.90
30459;DHT22;17254;50.976;7.034;2022-09-30T02:23:32;4.10;99.90
30459;DHT22;17254;50.976;7.034;2022-09-30T02:24:08;4.10;99.90
30459;DHT22;17254;50.976;7.034;2022-09-30T02:24:41;4.00;99.90
30459;DHT22;17254;50.976;7.034;2022-09-30T02:25:16;4.30;99.90
30459;DHT22;17254;50.976;7.034;2022-09-30T02:25:54;4.40;99.90
30459;DHT22;17254;50.976;7.034;2022-09-30T02:26:31;4.10;99.90
30459;DHT22;17254;50.976;7.034;2022-09-30T02:27:08;4.40;99.90
30459;DHT22;17254;50.976;7.034;2022-09-30T02:27:45;4.40;99.90
30459;DHT22;17254;50.976;7.034;2022-09-30T02:28:21;4.60;99.90
30459;DHT22;17254;50.976;7.034;2022-09-30T02:28:58;4.60;99.90
30459;DHT22;17254;50.976;7.034;2022-09-30T02:29:35;4.50;99.90
30459;DHT22;17254;50.976;7.034;2022-09-30T02:30:09;4.50;99.90
30459;DHT22;17254;50.976;7.034;2022-09-30T02:30:45;4.60;99.90
30459;DHT22;17254;50.976;7.034;2022-09-30T02:31:21;4.30;99.90
30459;DHT22;17254;50.976;7.034;2022-09-30T02:32:00;4.50;99.90
30459;DHT22;17254;50.976;7.034;2022-09-30T02:32:35;4.60;99.90
30459;DHT22;17254;50.976;7.034;2022-09-30T02:33:11;4.40;99.90
30459;DHT22;17254;50.976;7.034;2022-09-30T02:33:47;4.70;99.90
30459;DHT22;17254;50.976;7.034;2022-09-30T02:34:21;4.70;99.90
30459;DHT22;17254;50.976;7.034;2022-09-30T02:34:58;4.70;99.90
30459;DHT22;17254;50.976;7.034;2022-09-30T02:35:35;4.40;99.90
30459;DHT22;17254;50.976;7.034;2022-09-30T02:36:08;4.50;99.90
30459;DHT22;17254;50.976;7.034;2022-09-30T02:36:43;4.30;99.90
30459;DHT22;17254;50.976;7.034;2022-09-30T02:37:19;4.40;99.90
30459;DHT22;17254;50.976;7.034;2022-09-30T02:37:54;4.40;99.90
30459;DHT22;17254;50.976;7.034;2022-09-30T02:38:30;4.30;99.90
30459;DHT22;17254;50.976;7.034;2022-09-30T02:39:09;4.20;99.90
30459;DHT22;17254;50.976;7.034;2022-09-30T02:39:49;4.20;99.90
30459;DHT22;17254;50.976;7.034;2022-09-30T02:40:25;4.20;99.90
30459;DHT22;17254;50.976;7.034;2022-09-30T02:41:02;4.10;99.90
30459;DHT22;17254;50.976;7.034;2022-09-30T02:41:38;4.40;99.90
30459;DHT22;17254;50.976;7.034;2022-09-30T02:42:17;4.20;99.90
30459;DHT22;17254;50.976;7.034;2022-09-30T02:42:50;4.20;99.90
30459;DHT22;17254;50.976;7.034;2022-09-30T02:43:21;3.90;99.90
30459;DHT22;17254;50.976;7.034;2022-09-30T02:43:53;3.60;99.90
30459;DHT22;17254;50.976;7.034;2022-09-30T02:44:25;3.80;99.90
30459;DHT22;17254;50.976;7.034;2022-09-30T02:45:00;3.90;99.90
30459;DHT22;17254;50.976;7.034;2022-09-30T02:45:40;3.80;99.90
30459;DHT22;17254;50.976;7.034;2022-09-30T02:46:24;4.00;99.90
30459;DHT22;17254;50.976;7.034;2022-09-30T02:47:09;3.60;99.90
30459;DHT22;17254;50.976;7.034;2022-09-30T02:47:48;3.50;99.90
30459;DHT22;17254;50.976;7.034;2022-09-30T02:48:28;3.40;99.90
30459;DHT22;17254;50.976;7.034;2022-09-30T02:49:04;3.70;99.90
30459;DHT22;17254;50.976;7.034;2022-09-30T02:49:42;3.60;99.90
30459;DHT22;17254;50.976;7.034;2022-09-30T02:50:19;3.70;99.90
30459;DHT22;17254;50.976;7.034;2022-09-30T02:50:58;3.70;99.90
30459;DHT22;17254;50.976;7.034;2022-09-30T02:51:38;3.50;99.90
30459;DHT22;17254;50.976;7.034;2022-09-30T02:52:17;3.50;99.90
30459;DHT22;17254;50.976;7.034;2022-09-30T02:52:59;3.80;99.90
30459;DHT22;17254;50.976;7.034;2022-09-30T02:53:38;3.60;99.90
30459;DHT22;17254;50.976;7.034;2022-09-30T02:54:16;3.40;99.90
30459;DHT22;17254;50.976;7.034;2022-09-30T02:54:59;3.50;99.90
30459;DHT22;17254;50.976;7.034;2022-09-30T02:55:38;3.10;99.90
30459;DHT22;17254;50.976;7.034;2022-09-30T02:56:18;3.20;99.90
30459;DHT22;17254;50.976;7.034;2022-09-30T02:56:55;3.60;99.90
30459;DHT22;17254;50.976;7.034;2022-09-30T02:57:34;3.40;99.90
30459;DHT22;17254;50.976;7.034;2022-09-30T02:58:11;3.50;99.90
30459;DHT22;17254;50.976;7.034;2022-09-30T02:58:44;3.80;99.90
30459;DHT22;17254;50.976;7.034;2022-09-30T02:59:15;3.80;99.90
30459;DHT22;17254;50.976;7.034;2022-09-30T02:59:49;3.50;99.90
30459;DHT22;17254;50.976;7.034;2022-09-30T03:00:22;3.60;99.90
30459;DHT22;17254;50.976;7.034;2022-09-30T03:00:54;3.60;99.90
30459;DHT22;17254;50.976;7.034;2022-09-30T03:01:25;3.70;99.90
30459;DHT22;17254;50.976;7.034;2022-09-30T03:01:57;3.60;99.90
30459;DHT22;17254;50.976;7.034;2022-09-30T03:02:30;3.80;99.90
30459;DHT22;17254;50.976;7.034;2022-09-30T03:03:04;3.50;99.90
30459;DHT22;17254;50.976;7.034;2022-09-30T03:03:40;3.40;99.90
30459;DHT22;17254;50.976;7.034;2022-09-30T03:04:14;3.40;99.90
30459;DHT22;17254;50.976;7.034;2022-09-30T03:04:47;3.50;99.90
30459;DHT22;17254;50.976;7.034;2022-09-30T03:05:20;3.70;99.90
30459;DHT22;17254;50.976;7.034;2022-09-30T03:05:51;3.80;99.90
30459;DHT22;17254;50.976;7.034;2022-09-30T03:06:22;4.10;99.90
30459;DHT22;17254;50.976;7.034;2022-09-30T03:06:54;3.90;99.90
30459;DHT22;17254;50.976;7.034;2022-09-30T03:07:25;3.80;99.90
30459;DHT22;17254;50.976;7.034;2022-09-30T03:07:57;3.80;99.90
30459;DHT22;17254;50.976;7.034;2022-09-30T03:08:28;4.00;99.90
30459;DHT22;17254;50.976;7.034;2022-09-30T03:09:00;3.60;99.90
30459;DHT22;17254;50.976;7.034;2022-09-30T03:09:33;3.60;99.90
30459;DHT22;17254;50.976;7.034;2022-09-30T03:10:11;3.60;99.90
30459;DHT22;17254;50.976;7.034;2022-09-30T03:10:46;3.70;99.90
30459;DHT22;17254;50.976;7.034;2022-09-30T03:11:22;3.40;99.90
30459;DHT22;17254;50.976;7.034;2022-09-30T03:11:59;3.50;99.90
30459;DHT22;17254;50.976;7.034;2022-09-30T03:12:44;3.80;99.90
30459;DHT22;17254;50.976;7.034;2022-09-30T03:13:33;3.80;99.90
30459;DHT22;17254;50.976;7.034;2022-09-30T03:14:30;3.80;99.90
30459;DHT22;17254;50.976;7.034;2022-09-30T03:15:24;4.30;99.90
30459;DHT22;17254;50.976;7.034;2022-09-30T03:16:09;3.90;99.90
30459;DHT22;17254;50.976;7.034;2022-09-30T03:17:03;4.20;99.90
30459;DHT22;17254;50.976;7.034;2022-09-30T03:17:58;4.20;99.90
30459;DHT22;17254;50.976;7.034;2022-09-30T03:18:51;4.40;99.90
30459;DHT22;17254;50.976;7.034;2022-09-30T03:19:39;4.10;99.90
30459;DHT22;17254;50.976;7.034;2022-09-30T03:20:33;4.00;99.90
30459;DHT22;17254;50.976;7.034;2022-09-30T03:21:13;4.10;99.90
30459;DHT22;17254;50.976;7.034;2022-09-30T03:22:05;4.10;99.90
30459;DHT22;17254;50.976;7.034;2022-09-30T03:24:00;4.20;99.90
30459;DHT22;17254;50.976;7.034;2022-09-30T03:24:44;3.80;99.90
30459;DHT22;17254;50.976;7.034;2022-09-30T03:25:32;3.90;99.90
30459;DHT22;17254;50.976;7.034;2022-09-30T03:26:17;4.20;99.90
30459;DHT22;17254;50.976;7.034;2022-09-30T03:26:57;3.90;99.90
30459;DHT22;17254;50.976;7.034;2022-09-30T03:27:35;4.10;99.90
30459;DHT22;17254;50.976;7.034;2022-09-30T03:28:18;4.00;99.90
30459;DHT22;17254;50.976;7.034;2022-09-30T03:29:00;3.70;99.90
30459;DHT22;17254;50.976;7.034;2022-09-30T03:29:43;4.00;99.90
30459;DHT22;17254;50.976;7.034;2022-09-30T03:30:17;3.90;99.90
30459;DHT22;17254;50.976;7.034;2022-09-30T03:30:57;4.20;99.90
30459;DHT22;17254;50.976;7.034;2022-09-30T03:31:39;4.20;99.90
30459;DHT22;17254;50.976;7.034;2022-09-30T03:32:20;3.80;99.90
30459;DHT22;17254;50.976;7.034;2022-09-30T03:33:05;4.20;99.90
30459;DHT22;17254;50.976;7.034;2022-09-30T03:33:43;4.00;99.90
30459;DHT22;17254;50.976;7.034;2022-09-30T03:34:19;4.40;99.90
30459;DHT22;17254;50.976;7.034;2022-09-30T03:35:03;4.30;99.90
30459;DHT22;17254;50.976;7.034;2022-09-30T03:35:44;4.40;99.90
30459;DHT22;17254;50.976;7.034;2022-09-30T03:36:25;4.20;99.90
30459;DHT22;17254;50.976;7.034;2022-09-30T03:37:00;4.30;99.90
30459;DHT22;17254;50.976;7.034;2022-09-30T03:37:41;4.30;99.90
30459;DHT22;17254;50.976;7.034;2022-09-30T03:38:23;4.40;99.90
30459;DHT22;17254;50.976;7.034;2022-09-30T03:39:02;4.00;99.90
30459;DHT22;17254;50.976;7.034;2022-09-30T03:39:47;4.20;99.90
30459;DHT22;17254;50.976;7.034;2022-09-30T03:40:27;4.00;99.90
30459;DHT22;17254;50.976;7.034;2022-09-30T03:41:05;4.00;99.90
30459;DHT22;17254;50.976;7.034;2022-09-30T03:41:40;3.90;99.90
30459;DHT22;17254;50.976;7.034;2022-09-30T03:42:14;4.10;99.90
30459;DHT22;17254;50.976;7.034;2022-09-30T03:42:53;3.90;99.90
30459;DHT22;17254;50.976;7.034;2022-09-30T03:43:30;4.20;99.90
30459;DHT22;17254;50.976;7.034;2022-09-30T03:44:07;4.00;99.90
30459;DHT22;17254;50.976;7.034;2022-09-30T03:44:44;4.00;99.90
30459;DHT22;17254;50.976;7.034;2022-09-30T03:45:19;3.90;99.90
30459;DHT22;17254;50.976;7.034;2022-09-30T03:45:57;4.00;99.90
30459;DHT22;17254;50.976;7.034;2022-09-30T03:46:34;4.10;99.90
30459;DHT22;17254;50.976;7.034;2022-09-30T03:47:08;3.80;99.90
30459;DHT22;17254;50.976;7.034;2022-09-30T03:47:43;3.90;99.90
30459;DHT22;17254;50.976;7.034;2022-09-30T03:48:18;3.50;99.90
30459;DHT22;17254;50.976;7.034;2022-09-30T03:48:53;3.70;99.90
30459;DHT22;17254;50.976;7.034;2022-09-30T03:49:28;3.40;99.90
30459;DHT22;17254;50.976;7.034;2022-09-30T03:50:04;3.20;99.90
30459;DHT22;17254;50.976;7.034;2022-09-30T03:50:37;3.30;99.90
30459;DHT22;17254;50.976;7.034;2022-09-30T03:51:09;3.40;99.90
30459;DHT22;17254;50.976;7.034;2022-09-30T03:51:41;3.10;99.90
30459;DHT22;17254;50.976;7.034;2022-09-30T03:52:12;3.00;99.90
30459;DHT22;17254;50.976;7.034;2022-09-30T03:52:45;3.40;99.90
30459;DHT22;17254;50.976;7.034;2022-09-30T03:53:17;3.40;99.90
30459;DHT22;17254;50.976;7.034;2022-09-30T03:53:48;3.50;99.90
30459;DHT22;17254;50.976;7.034;2022-09-30T03:54:20;3.00;99.90
30459;DHT22;17254;50.976;7.034;2022-09-30T03:54:54;3.40;99.90
30459;DHT22;17254;50.976;7.034;2022-09-30T03:55:27;3.20;99.90
30459;DHT22;17254;50.976;7.034;2022-09-30T03:55:59;3.00;99.90
30459;DHT22;17254;50.976;7.034;2022-09-30T03:56:30;3.30;99.90
30459;DHT22;17254;50.976;7.034;2022-09-30T03:57:01;3.30;99.90
30459;DHT22;17254;50.976;7.034;2022-09-30T03:57:34;3.20;99.90
30459;DHT22;17254;50.976;7.034;2022-09-30T03:58:05;3.30;99.90